sensor_id;sensor_type;location;lat;lon;timestamp;P1;durP1;ratioP1;P2;durP2;ratioP2
37527;SDS011;23372;52.050;4.810;2022-11-15T00:00:24;89.17;;;34.90;;
37527;SDS011;23372;52.050;4.810;2022-11-15T00:02:49;92.47;;;38.20;;
37527;SDS011;23372;52.050;4.810;2022-11-15T00:05:16;91.17;;;35.30;;
37527;SDS011;23372;52.050;4.810;2022-11-15T00:07:42;104.30;;;39.30;;
37527;SDS011;23372;52.050;4.810;2022-11-15T00:10:07;94.30;;;37.77;;
37527;SDS011;23372;52.050;4.810;2022-11-15T00:12:33;98.63;;;36.27;;
37527;SDS011;23372;52.050;4.810;2022-11-15T00:14:58;100.53;;;36.97;;
37527;SDS011;23372;52.050;4.810;2022-11-15T00:17:24;96.00;;;35.73;;
37527;SDS011;23372;52.050;4.810;2022-11-15T00:19:49;99.70;;;36.13;;
37527;SDS011;23372;52.050;4.810;2022-11-15T00:22:15;100.13;;;36.40;;
37527;SDS011;23372;52.050;4.810;2022-11-15T00:24:40;120.83;;;42.33;;
37527;SDS011;23372;52.050;4.810;2022-11-15T00:27:06;101.80;;;36.33;;
37527;SDS011;23372;52.050;4.810;2022-11-15T00:29:31;117.87;;;38.43;;
37527;SDS011;23372;52.050;4.810;2022-11-15T00:31:57;108.83;;;39.33;;
37527;SDS011;23372;52.050;4.810;2022-11-15T00:34:22;118.07;;;39.20;;
37527;SDS011;23372;52.050;4.810;2022-11-15T00:36:48;109.00;;;37.87;;
37527;SDS011;23372;52.050;4.810;2022-11-15T00:39:13;113.40;;;38.47;;
37527;SDS011;23372;52.050;4.810;2022-11-15T00:41:38;105.13;;;37.73;;
37527;SDS011;23372;52.050;4.810;2022-11-15T00:44:04;104.67;;;37.63;;
37527;SDS011;23372;52.050;4.810;2022-11-15T00:46:29;106.27;;;36.37;;
37527;SDS011;23372;52.050;4.810;2022-11-15T00:48:55;111.60;;;36.30;;
37527;SDS011;23372;52.050;4.810;2022-11-15T00:51:20;107.20;;;38.50;;
37527;SDS011;23372;52.050;4.810;2022-11-15T00:53:46;101.53;;;36.20;;
37527;SDS011;23372;52.050;4.810;2022-11-15T00:56:11;110.87;;;35.43;;
37527;SDS011;23372;52.050;4.810;2022-11-15T00:58:37;101.17;;;35.07;;
37527;SDS011;23372;52.050;4.810;2022-11-15T01:01:06;106.93;;;36.00;;
37527;SDS011;23372;52.050;4.810;2022-11-15T01:03:34;114.20;;;36.87;;
37527;SDS011;23372;52.050;4.810;2022-11-15T01:06:00;110.10;;;36.90;;
37527;SDS011;23372;52.050;4.810;2022-11-15T01:08:25;107.00;;;35.97;;
37527;SDS011;23372;52.050;4.810;2022-11-15T01:10:51;97.73;;;35.53;;
37527;SDS011;23372;52.050;4.810;2022-11-15T01:13:16;99.13;;;34.87;;
37527;SDS011;23372;52.050;4.810;2022-11-15T01:15:42;106.13;;;35.20;;
37527;SDS011;23372;52.050;4.810;2022-11-15T01:18:08;108.23;;;36.80;;
37527;SDS011;23372;52.050;4.810;2022-11-15T01:20:34;109.17;;;37.73;;
37527;SDS011;23372;52.050;4.810;2022-11-15T01:22:59;118.13;;;38.87;;
37527;SDS011;23372;52.050;4.810;2022-11-15T01:25:24;113.20;;;37.17;;
37527;SDS011;23372;52.050;4.810;2022-11-15T01:27:50;105.93;;;37.23;;
37527;SDS011;23372;52.050;4.810;2022-11-15T01:30:15;115.27;;;39.00;;
37527;SDS011;23372;52.050;4.810;2022-11-15T01:32:41;118.73;;;40.07;;
37527;SDS011;23372;52.050;4.810;2022-11-15T01:35:07;130.13;;;39.90;;
37527;SDS011;23372;52.050;4.810;2022-11-15T01:37:32;109.83;;;39.90;;
37527;SDS011;23372;52.050;4.810;2022-11-15T01:39:58;132.47;;;42.77;;
37527;SDS011;23372;52.050;4.810;2022-11-15T01:42:23;126.10;;;40.20;;
37527;SDS011;23372;52.050;4.810;2022-11-15T01:44:50;132.67;;;44.30;;
37527;SDS011;23372;52.050;4.810;2022-11-15T01:47:18;131.37;;;43.53;;
37527;SDS011;23372;52.050;4.810;2022-11-15T01:49:47;127.70;;;41.60;;
37527;SDS011;23372;52.050;4.810;2022-11-15T01:52:18;119.13;;;41.80;;
37527;SDS011;23372;52.050;4.810;2022-11-15T01:54:46;124.20;;;41.87;;
37527;SDS011;23372;52.050;4.810;2022-11-15T01:57:15;128.13;;;41.27;;
37527;SDS011;23372;52.050;4.810;2022-11-15T01:59:42;117.00;;;40.90;;
37527;SDS011;23372;52.050;4.810;2022-11-15T02:02:09;138.90;;;42.17;;
37527;SDS011;23372;52.050;4.810;2022-11-15T02:04:40;121.17;;;41.40;;
37527;SDS011;23372;52.050;4.810;2022-11-15T02:07:08;136.90;;;42.97;;
37527;SDS011;23372;52.050;4.810;2022-11-15T02:09:36;126.63;;;41.67;;
37527;SDS011;23372;52.050;4.810;2022-11-15T02:12:03;135.77;;;44.53;;
37527;SDS011;23372;52.050;4.810;2022-11-15T02:14:29;148.50;;;46.17;;
37527;SDS011;23372;52.050;4.810;2022-11-15T02:20:13;125.67;;;45.60;;
37527;SDS011;23372;52.050;4.810;2022-11-15T02:23:11;125.80;;;44.07;;
37527;SDS011;23372;52.050;4.810;2022-11-15T02:31:51;151.10;;;48.87;;
37527;SDS011;23372;52.050;4.810;2022-11-15T02:37:38;142.13;;;48.73;;
37527;SDS011;23372;52.050;4.810;2022-11-15T02:40:23;166.10;;;52.33;;
37527;SDS011;23372;52.050;4.810;2022-11-15T02:42:57;151.57;;;49.47;;
37527;SDS011;23372;52.050;4.810;2022-11-15T02:45:50;146.30;;;50.43;;
37527;SDS011;23372;52.050;4.810;2022-11-15T02:48:21;149.73;;;48.90;;
37527;SDS011;23372;52.050;4.810;2022-11-15T02:50:48;161.10;;;49.67;;
37527;SDS011;23372;52.050;4.810;2022-11-15T02:53:14;143.00;;;48.77;;
37527;SDS011;23372;52.050;4.810;2022-11-15T02:55:41;158.20;;;51.03;;
37527;SDS011;23372;52.050;4.810;2022-11-15T03:00:51;143.27;;;51.13;;
37527;SDS011;23372;52.050;4.810;2022-11-15T03:05:58;153.57;;;50.87;;
37527;SDS011;23372;52.050;4.810;2022-11-15T03:08:49;138.23;;;51.87;;
37527;SDS011;23372;52.050;4.810;2022-11-15T03:11:29;136.67;;;50.07;;
37527;SDS011;23372;52.050;4.810;2022-11-15T03:13:58;132.77;;;49.10;;
37527;SDS011;23372;52.050;4.810;2022-11-15T03:16:47;132.43;;;50.10;;
37527;SDS011;23372;52.050;4.810;2022-11-15T03:19:40;123.13;;;47.13;;
37527;SDS011;23372;52.050;4.810;2022-11-15T03:22:17;128.27;;;48.47;;
37527;SDS011;23372;52.050;4.810;2022-11-15T03:24:47;131.23;;;49.67;;
37527;SDS011;23372;52.050;4.810;2022-11-15T03:27:17;126.00;;;45.30;;
37527;SDS011;23372;52.050;4.810;2022-11-15T03:29:47;122.80;;;47.40;;
37527;SDS011;23372;52.050;4.810;2022-11-15T03:32:23;111.40;;;43.87;;
37527;SDS011;23372;52.050;4.810;2022-11-15T03:37:45;111.57;;;44.97;;
37527;SDS011;23372;52.050;4.810;2022-11-15T03:40:13;110.80;;;45.10;;
37527;SDS011;23372;52.050;4.810;2022-11-15T03:42:47;120.87;;;45.23;;
37527;SDS011;23372;52.050;4.810;2022-11-15T03:45:23;110.63;;;44.40;;
37527;SDS011;23372;52.050;4.810;2022-11-15T03:47:57;103.20;;;43.90;;
37527;SDS011;23372;52.050;4.810;2022-11-15T03:50:27;91.43;;;39.77;;
37527;SDS011;23372;52.050;4.810;2022-11-15T03:52:54;94.90;;;42.13;;
37527;SDS011;23372;52.050;4.810;2022-11-15T03:55:21;100.83;;;42.87;;
37527;SDS011;23372;52.050;4.810;2022-11-15T03:57:47;99.80;;;42.13;;
37527;SDS011;23372;52.050;4.810;2022-11-15T04:00:15;94.10;;;42.03;;
37527;SDS011;23372;52.050;4.810;2022-11-15T04:02:40;99.37;;;41.43;;
37527;SDS011;23372;52.050;4.810;2022-11-15T04:05:06;89.17;;;39.10;;
37527;SDS011;23372;52.050;4.810;2022-11-15T04:07:32;82.33;;;39.23;;
37527;SDS011;23372;52.050;4.810;2022-11-15T04:09:57;82.07;;;38.87;;
37527;SDS011;23372;52.050;4.810;2022-11-15T04:12:34;85.27;;;39.10;;
37527;SDS011;23372;52.050;4.810;2022-11-15T04:15:05;94.80;;;39.63;;
37527;SDS011;23372;52.050;4.810;2022-11-15T04:17:41;80.43;;;37.60;;
37527;SDS011;23372;52.050;4.810;2022-11-15T04:20:18;75.87;;;36.30;;
37527;SDS011;23372;52.050;4.810;2022-11-15T04:23:04;89.43;;;38.73;;
37527;SDS011;23372;52.050;4.810;2022-11-15T04:25:58;81.80;;;38.83;;
37527;SDS011;23372;52.050;4.810;2022-11-15T04:28:25;81.50;;;37.03;;
37527;SDS011;23372;52.050;4.810;2022-11-15T04:30:51;75.47;;;36.13;;
37527;SDS011;23372;52.050;4.810;2022-11-15T04:33:16;79.50;;;36.00;;
37527;SDS011;23372;52.050;4.810;2022-11-15T04:35:42;80.50;;;37.47;;
37527;SDS011;23372;52.050;4.810;2022-11-15T04:38:08;73.77;;;36.60;;
37527;SDS011;23372;52.050;4.810;2022-11-15T04:40:35;82.60;;;36.80;;
37527;SDS011;23372;52.050;4.810;2022-11-15T04:43:02;76.03;;;35.57;;
37527;SDS011;23372;52.050;4.810;2022-11-15T04:45:27;77.77;;;34.90;;
37527;SDS011;23372;52.050;4.810;2022-11-15T04:47:53;72.33;;;34.53;;
37527;SDS011;23372;52.050;4.810;2022-11-15T04:50:18;68.23;;;33.00;;
37527;SDS011;23372;52.050;4.810;2022-11-15T04:52:49;71.93;;;34.60;;
37527;SDS011;23372;52.050;4.810;2022-11-15T04:55:16;67.30;;;33.83;;
37527;SDS011;23372;52.050;4.810;2022-11-15T04:57:42;72.43;;;34.37;;
37527;SDS011;23372;52.050;4.810;2022-11-15T05:00:09;66.43;;;34.07;;
37527;SDS011;23372;52.050;4.810;2022-11-15T05:02:37;71.13;;;33.57;;
37527;SDS011;23372;52.050;4.810;2022-11-15T05:05:21;68.63;;;32.77;;
37527;SDS011;23372;52.050;4.810;2022-11-15T05:07:48;65.43;;;32.97;;
37527;SDS011;23372;52.050;4.810;2022-11-15T05:10:13;67.03;;;31.97;;
37527;SDS011;23372;52.050;4.810;2022-11-15T05:12:39;58.50;;;31.30;;
37527;SDS011;23372;52.050;4.810;2022-11-15T05:15:05;66.97;;;31.37;;
37527;SDS011;23372;52.050;4.810;2022-11-15T05:17:31;63.90;;;31.50;;
37527;SDS011;23372;52.050;4.810;2022-11-15T05:19:56;58.37;;;30.27;;
37527;SDS011;23372;52.050;4.810;2022-11-15T05:22:22;65.30;;;32.13;;
37527;SDS011;23372;52.050;4.810;2022-11-15T05:24:47;63.63;;;30.30;;
37527;SDS011;23372;52.050;4.810;2022-11-15T05:27:13;64.80;;;34.37;;
37527;SDS011;23372;52.050;4.810;2022-11-15T05:29:38;58.30;;;28.93;;
37527;SDS011;23372;52.050;4.810;2022-11-15T05:32:05;64.07;;;30.60;;
37527;SDS011;23372;52.050;4.810;2022-11-15T05:34:31;101.73;;;56.23;;
37527;SDS011;23372;52.050;4.810;2022-11-15T05:36:57;120.77;;;60.87;;
37527;SDS011;23372;52.050;4.810;2022-11-15T05:39:23;159.80;;;91.90;;
37527;SDS011;23372;52.050;4.810;2022-11-15T05:41:51;94.43;;;55.57;;
37527;SDS011;23372;52.050;4.810;2022-11-15T05:44:21;64.03;;;33.53;;
37527;SDS011;23372;52.050;4.810;2022-11-15T05:46:48;60.20;;;35.67;;
37527;SDS011;23372;52.050;4.810;2022-11-15T05:49:16;87.87;;;50.07;;
37527;SDS011;23372;52.050;4.810;2022-11-15T05:51:46;79.90;;;48.87;;
37527;SDS011;23372;52.050;4.810;2022-11-15T05:54:14;85.77;;;52.17;;
37527;SDS011;23372;52.050;4.810;2022-11-15T05:56:40;63.83;;;35.40;;
37527;SDS011;23372;52.050;4.810;2022-11-15T05:59:07;70.20;;;35.27;;
37527;SDS011;23372;52.050;4.810;2022-11-15T06:01:34;69.43;;;36.43;;
37527;SDS011;23372;52.050;4.810;2022-11-15T06:03:59;69.33;;;38.67;;
37527;SDS011;23372;52.050;4.810;2022-11-15T06:06:26;65.27;;;32.27;;
37527;SDS011;23372;52.050;4.810;2022-11-15T06:08:52;65.40;;;34.40;;
37527;SDS011;23372;52.050;4.810;2022-11-15T06:11:18;71.47;;;35.57;;
37527;SDS011;23372;52.050;4.810;2022-11-15T06:13:43;67.60;;;37.63;;
37527;SDS011;23372;52.050;4.810;2022-11-15T06:16:09;58.03;;;31.40;;
37527;SDS011;23372;52.050;4.810;2022-11-15T06:18:35;70.83;;;32.33;;
37527;SDS011;23372;52.050;4.810;2022-11-15T06:21:01;54.37;;;30.07;;
37527;SDS011;23372;52.050;4.810;2022-11-15T06:23:27;62.40;;;29.97;;
37527;SDS011;23372;52.050;4.810;2022-11-15T06:25:57;65.13;;;28.37;;
37527;SDS011;23372;52.050;4.810;2022-11-15T06:28:23;58.20;;;27.40;;
37527;SDS011;23372;52.050;4.810;2022-11-15T06:30:48;53.30;;;28.33;;
37527;SDS011;23372;52.050;4.810;2022-11-15T06:33:13;57.73;;;27.50;;
37527;SDS011;23372;52.050;4.810;2022-11-15T06:35:39;56.70;;;27.03;;
37527;SDS011;23372;52.050;4.810;2022-11-15T06:38:05;52.03;;;25.80;;
37527;SDS011;23372;52.050;4.810;2022-11-15T06:40:33;50.60;;;27.53;;
37527;SDS011;23372;52.050;4.810;2022-11-15T06:43:00;55.53;;;27.07;;
37527;SDS011;23372;52.050;4.810;2022-11-15T06:45:26;51.00;;;25.57;;
37527;SDS011;23372;52.050;4.810;2022-11-15T06:47:52;51.30;;;24.83;;
37527;SDS011;23372;52.050;4.810;2022-11-15T06:50:17;47.97;;;24.47;;
37527;SDS011;23372;52.050;4.810;2022-11-15T06:52:43;48.60;;;24.70;;
37527;SDS011;23372;52.050;4.810;2022-11-15T06:55:08;49.87;;;24.87;;
37527;SDS011;23372;52.050;4.810;2022-11-15T06:57:34;43.70;;;23.50;;
37527;SDS011;23372;52.050;4.810;2022-11-15T07:00:00;48.57;;;23.07;;
37527;SDS011;23372;52.050;4.810;2022-11-15T07:02:27;47.37;;;23.50;;
37527;SDS011;23372;52.050;4.810;2022-11-15T07:04:52;56.33;;;29.63;;
37527;SDS011;23372;52.050;4.810;2022-11-15T07:07:18;49.43;;;25.70;;
37527;SDS011;23372;52.050;4.810;2022-11-15T07:09:43;49.23;;;25.47;;
37527;SDS011;23372;52.050;4.810;2022-11-15T07:12:09;49.63;;;25.53;;
37527;SDS011;23372;52.050;4.810;2022-11-15T07:14:34;47.73;;;24.50;;
37527;SDS011;23372;52.050;4.810;2022-11-15T07:17:00;49.13;;;24.83;;
37527;SDS011;23372;52.050;4.810;2022-11-15T07:19:28;46.73;;;25.60;;
37527;SDS011;23372;52.050;4.810;2022-11-15T07:21:54;42.97;;;24.00;;
37527;SDS011;23372;52.050;4.810;2022-11-15T07:24:19;48.27;;;25.00;;
37527;SDS011;23372;52.050;4.810;2022-11-15T07:26:45;47.10;;;25.27;;
37527;SDS011;23372;52.050;4.810;2022-11-15T07:29:10;46.67;;;22.73;;
37527;SDS011;23372;52.050;4.810;2022-11-15T07:31:36;47.93;;;25.73;;
37527;SDS011;23372;52.050;4.810;2022-11-15T07:34:02;48.67;;;25.87;;
37527;SDS011;23372;52.050;4.810;2022-11-15T07:36:27;44.70;;;23.67;;
37527;SDS011;23372;52.050;4.810;2022-11-15T07:38:53;50.83;;;25.73;;
37527;SDS011;23372;52.050;4.810;2022-11-15T07:41:18;51.97;;;25.37;;
37527;SDS011;23372;52.050;4.810;2022-11-15T07:43:44;47.97;;;24.70;;
37527;SDS011;23372;52.050;4.810;2022-11-15T07:46:09;43.70;;;22.67;;
37527;SDS011;23372;52.050;4.810;2022-11-15T07:48:35;52.80;;;26.03;;
37527;SDS011;23372;52.050;4.810;2022-11-15T07:51:02;47.07;;;22.43;;
37527;SDS011;23372;52.050;4.810;2022-11-15T07:53:27;46.80;;;22.83;;
37527;SDS011;23372;52.050;4.810;2022-11-15T07:55:53;50.23;;;25.33;;
37527;SDS011;23372;52.050;4.810;2022-11-15T07:58:19;46.20;;;26.13;;
37527;SDS011;23372;52.050;4.810;2022-11-15T08:00:44;49.97;;;25.70;;
37527;SDS011;23372;52.050;4.810;2022-11-15T08:03:11;48.03;;;26.37;;
37527;SDS011;23372;52.050;4.810;2022-11-15T08:05:38;52.10;;;24.70;;
37527;SDS011;23372;52.050;4.810;2022-11-15T08:08:05;56.53;;;26.43;;
37527;SDS011;23372;52.050;4.810;2022-11-15T08:10:31;50.60;;;27.87;;
37527;SDS011;23372;52.050;4.810;2022-11-15T08:13:01;49.33;;;24.63;;
37527;SDS011;23372;52.050;4.810;2022-11-15T08:15:28;51.13;;;27.50;;
37527;SDS011;23372;52.050;4.810;2022-11-15T08:17:55;43.97;;;23.43;;
37527;SDS011;23372;52.050;4.810;2022-11-15T08:20:26;51.20;;;20.77;;
37527;SDS011;23372;52.050;4.810;2022-11-15T08:22:55;37.47;;;21.40;;
37527;SDS011;23372;52.050;4.810;2022-11-15T08:25:21;36.10;;;19.33;;
37527;SDS011;23372;52.050;4.810;2022-11-15T08:27:47;40.87;;;19.13;;
37527;SDS011;23372;52.050;4.810;2022-11-15T08:30:16;42.17;;;20.77;;
37527;SDS011;23372;52.050;4.810;2022-11-15T08:32:42;49.83;;;28.23;;
37527;SDS011;23372;52.050;4.810;2022-11-15T08:35:08;37.93;;;23.97;;
37527;SDS011;23372;52.050;4.810;2022-11-15T08:37:33;45.70;;;25.53;;
37527;SDS011;23372;52.050;4.810;2022-11-15T08:39:59;39.50;;;22.80;;
37527;SDS011;23372;52.050;4.810;2022-11-15T08:42:25;27.80;;;17.20;;
37527;SDS011;23372;52.050;4.810;2022-11-15T08:44:51;38.97;;;17.07;;
37527;SDS011;23372;52.050;4.810;2022-11-15T08:47:16;31.80;;;14.70;;
37527;SDS011;23372;52.050;4.810;2022-11-15T08:49:42;24.03;;;13.10;;
37527;SDS011;23372;52.050;4.810;2022-11-15T08:52:07;29.37;;;14.10;;
37527;SDS011;23372;52.050;4.810;2022-11-15T08:54:32;25.23;;;11.80;;
37527;SDS011;23372;52.050;4.810;2022-11-15T08:56:58;21.67;;;14.17;;
37527;SDS011;23372;52.050;4.810;2022-11-15T08:59:23;25.30;;;14.03;;
37527;SDS011;23372;52.050;4.810;2022-11-15T09:01:49;26.00;;;13.20;;
37527;SDS011;23372;52.050;4.810;2022-11-15T09:04:14;28.07;;;12.00;;
37527;SDS011;23372;52.050;4.810;2022-11-15T09:06:40;24.37;;;13.40;;
37527;SDS011;23372;52.050;4.810;2022-11-15T09:09:05;19.83;;;11.67;;
37527;SDS011;23372;52.050;4.810;2022-11-15T09:11:31;22.53;;;12.47;;
37527;SDS011;23372;52.050;4.810;2022-11-15T09:13:57;24.57;;;12.77;;
37527;SDS011;23372;52.050;4.810;2022-11-15T09:16:22;20.13;;;12.23;;
37527;SDS011;23372;52.050;4.810;2022-11-15T09:18:48;20.57;;;12.03;;
37527;SDS011;23372;52.050;4.810;2022-11-15T09:21:13;15.87;;;10.03;;
37527;SDS011;23372;52.050;4.810;2022-11-15T09:23:39;17.70;;;9.20;;
37527;SDS011;23372;52.050;4.810;2022-11-15T09:26:05;15.23;;;8.63;;
37527;SDS011;23372;52.050;4.810;2022-11-15T09:28:31;17.70;;;9.50;;
37527;SDS011;23372;52.050;4.810;2022-11-15T09:30:58;16.90;;;8.53;;
37527;SDS011;23372;52.050;4.810;2022-11-15T09:33:25;14.77;;;8.33;;
37527;SDS011;23372;52.050;4.810;2022-11-15T09:35:51;17.00;;;8.97;;
37527;SDS011;23372;52.050;4.810;2022-11-15T09:38:17;11.60;;;7.53;;
37527;SDS011;23372;52.050;4.810;2022-11-15T09:40:43;14.73;;;8.37;;
37527;SDS011;23372;52.050;4.810;2022-11-15T09:46:07;12.07;;;6.30;;
37527;SDS011;23372;52.050;4.810;2022-11-15T09:48:54;9.97;;;6.27;;
37527;SDS011;23372;52.050;4.810;2022-11-15T09:51:34;10.60;;;6.40;;
37527;SDS011;23372;52.050;4.810;2022-11-15T09:54:16;13.40;;;6.93;;
37527;SDS011;23372;52.050;4.810;2022-11-15T09:57:02;13.17;;;7.17;;
37527;SDS011;23372;52.050;4.810;2022-11-15T10:05:21;13.00;;;7.43;;
37527;SDS011;23372;52.050;4.810;2022-11-15T10:10:39;11.50;;;6.83;;
37527;SDS011;23372;52.050;4.810;2022-11-15T10:13:13;13.77;;;7.30;;
37527;SDS011;23372;52.050;4.810;2022-11-15T10:15:43;11.90;;;6.03;;
37527;SDS011;23372;52.050;4.810;2022-11-15T10:18:19;11.20;;;6.10;;
37527;SDS011;23372;52.050;4.810;2022-11-15T10:20:57;12.10;;;5.97;;
37527;SDS011;23372;52.050;4.810;2022-11-15T10:23:24;16.10;;;6.53;;
37527;SDS011;23372;52.050;4.810;2022-11-15T10:25:52;12.70;;;5.20;;
37527;SDS011;23372;52.050;4.810;2022-11-15T10:28:26;9.73;;;5.30;;
37527;SDS011;23372;52.050;4.810;2022-11-15T10:30:54;8.73;;;4.77;;
37527;SDS011;23372;52.050;4.810;2022-11-15T10:33:26;7.43;;;4.63;;
37527;SDS011;23372;52.050;4.810;2022-11-15T10:36:14;10.20;;;5.40;;
37527;SDS011;23372;52.050;4.810;2022-11-15T10:43:45;16.37;;;5.33;;
37527;SDS011;23372;52.050;4.810;2022-11-15T10:46:26;11.67;;;3.97;;
37527;SDS011;23372;52.050;4.810;2022-11-15T10:48:51;9.37;;;3.80;;
37527;SDS011;23372;52.050;4.810;2022-11-15T10:51:21;13.83;;;4.20;;
37527;SDS011;23372;52.050;4.810;2022-11-15T10:53:53;10.23;;;3.93;;
37527;SDS011;23372;52.050;4.810;2022-11-15T10:56:20;12.27;;;4.37;;
37527;SDS011;23372;52.050;4.810;2022-11-15T10:59:09;10.60;;;4.07;;
37527;SDS011;23372;52.050;4.810;2022-11-15T11:01:47;10.03;;;4.53;;
37527;SDS011;23372;52.050;4.810;2022-11-15T11:04:13;4.73;;;3.10;;
37527;SDS011;23372;52.050;4.810;2022-11-15T11:09:34;9.03;;;2.90;;
37527;SDS011;23372;52.050;4.810;2022-11-15T11:12:01;9.30;;;3.40;;
37527;SDS011;23372;52.050;4.810;2022-11-15T11:14:29;8.37;;;2.93;;
37527;SDS011;23372;52.050;4.810;2022-11-15T11:25:10;5.87;;;2.67;;
37527;SDS011;23372;52.050;4.810;2022-11-15T11:33:10;5.13;;;1.87;;
37527;SDS011;23372;52.050;4.810;2022-11-15T11:38:39;15.63;;;3.83;;
37527;SDS011;23372;52.050;4.810;2022-11-15T11:44:14;6.20;;;3.43;;
37527;SDS011;23372;52.050;4.810;2022-11-15T11:47:09;9.30;;;2.30;;
37527;SDS011;23372;52.050;4.810;2022-11-15T11:49:42;7.73;;;2.60;;
37527;SDS011;23372;52.050;4.810;2022-11-15T11:52:32;6.53;;;1.87;;
37527;SDS011;23372;52.050;4.810;2022-11-15T12:00:39;6.13;;;2.00;;
37527;SDS011;23372;52.050;4.810;2022-11-15T12:05:41;8.50;;;3.50;;
37527;SDS011;23372;52.050;4.810;2022-11-15T12:11:00;6.27;;;2.03;;
37527;SDS011;23372;52.050;4.810;2022-11-15T12:13:32;7.63;;;1.80;;
37527;SDS011;23372;52.050;4.810;2022-11-15T12:18:32;6.20;;;2.10;;
37527;SDS011;23372;52.050;4.810;2022-11-15T12:21:03;5.13;;;1.90;;
37527;SDS011;23372;52.050;4.810;2022-11-15T12:23:38;11.93;;;2.00;;
37527;SDS011;23372;52.050;4.810;2022-11-15T12:26:10;5.90;;;1.73;;
37527;SDS011;23372;52.050;4.810;2022-11-15T12:28:43;14.10;;;1.73;;
37527;SDS011;23372;52.050;4.810;2022-11-15T12:33:56;12.93;;;2.33;;
37527;SDS011;23372;52.050;4.810;2022-11-15T12:41:18;5.03;;;1.33;;
37527;SDS011;23372;52.050;4.810;2022-11-15T12:43:45;5.20;;;1.60;;
37527;SDS011;23372;52.050;4.810;2022-11-15T12:46:18;9.63;;;1.30;;
37527;SDS011;23372;52.050;4.810;2022-11-15T12:48:53;5.70;;;1.10;;
37527;SDS011;23372;52.050;4.810;2022-11-15T13:02:30;7.00;;;1.17;;
37527;SDS011;23372;52.050;4.810;2022-11-15T13:05:52;11.67;;;1.17;;
37527;SDS011;23372;52.050;4.810;2022-11-15T13:08:08;5.63;;;1.07;;
37527;SDS011;23372;52.050;4.810;2022-11-15T13:10:34;5.60;;;1.30;;
37527;SDS011;23372;52.050;4.810;2022-11-15T13:13:00;9.77;;;1.20;;
37527;SDS011;23372;52.050;4.810;2022-11-15T13:15:43;12.43;;;1.20;;
37527;SDS011;23372;52.050;4.810;2022-11-15T13:21:03;6.00;;;1.00;;
37527;SDS011;23372;52.050;4.810;2022-11-15T13:23:54;6.47;;;1.00;;
37527;SDS011;23372;52.050;4.810;2022-11-15T13:26:20;7.43;;;0.90;;
37527;SDS011;23372;52.050;4.810;2022-11-15T13:28:49;7.73;;;1.40;;
37527;SDS011;23372;52.050;4.810;2022-11-15T13:31:24;6.70;;;1.60;;
37527;SDS011;23372;52.050;4.810;2022-11-15T13:33:53;5.13;;;1.37;;
37527;SDS011;23372;52.050;4.810;2022-11-15T13:36:27;5.53;;;1.30;;
37527;SDS011;23372;52.050;4.810;2022-11-15T13:38:56;4.20;;;1.03;;
37527;SDS011;23372;52.050;4.810;2022-11-15T13:41:31;5.17;;;1.30;;
37527;SDS011;23372;52.050;4.810;2022-11-15T13:43:58;5.03;;;1.17;;
37527;SDS011;23372;52.050;4.810;2022-11-15T13:46:26;9.00;;;1.17;;
37527;SDS011;23372;52.050;4.810;2022-11-15T13:49:11;7.17;;;1.30;;
37527;SDS011;23372;52.050;4.810;2022-11-15T13:51:38;6.20;;;1.60;;
37527;SDS011;23372;52.050;4.810;2022-11-15T13:54:24;6.43;;;1.67;;
37527;SDS011;23372;52.050;4.810;2022-11-15T13:56:58;9.03;;;1.60;;
37527;SDS011;23372;52.050;4.810;2022-11-15T13:59:49;7.67;;;1.30;;
37527;SDS011;23372;52.050;4.810;2022-11-15T14:02:27;8.03;;;1.97;;
37527;SDS011;23372;52.050;4.810;2022-11-15T14:04:57;6.17;;;1.17;;
37527;SDS011;23372;52.050;4.810;2022-11-15T14:07:27;6.17;;;1.00;;
37527;SDS011;23372;52.050;4.810;2022-11-15T14:09:53;4.73;;;1.17;;
37527;SDS011;23372;52.050;4.810;2022-11-15T14:14:54;6.43;;;1.20;;
37527;SDS011;23372;52.050;4.810;2022-11-15T14:17:21;4.57;;;1.30;;
37527;SDS011;23372;52.050;4.810;2022-11-15T14:19:53;6.17;;;1.10;;
37527;SDS011;23372;52.050;4.810;2022-11-15T14:22:20;5.90;;;1.40;;
37527;SDS011;23372;52.050;4.810;2022-11-15T14:27:37;2.37;;;0.83;;
37527;SDS011;23372;52.050;4.810;2022-11-15T14:30:03;4.40;;;1.43;;
37527;SDS011;23372;52.050;4.810;2022-11-15T14:32:39;3.93;;;1.10;;
37527;SDS011;23372;52.050;4.810;2022-11-15T14:35:18;4.77;;;1.10;;
37527;SDS011;23372;52.050;4.810;2022-11-15T14:37:45;6.60;;;1.10;;
37527;SDS011;23372;52.050;4.810;2022-11-15T14:40:13;4.93;;;1.23;;
37527;SDS011;23372;52.050;4.810;2022-11-15T14:42:40;6.87;;;1.13;;
37527;SDS011;23372;52.050;4.810;2022-11-15T14:45:19;3.47;;;0.87;;
37527;SDS011;23372;52.050;4.810;2022-11-15T14:47:47;3.07;;;1.17;;
37527;SDS011;23372;52.050;4.810;2022-11-15T14:50:14;8.10;;;1.17;;
37527;SDS011;23372;52.050;4.810;2022-11-15T14:52:41;5.83;;;1.07;;
37527;SDS011;23372;52.050;4.810;2022-11-15T14:55:21;4.00;;;1.10;;
37527;SDS011;23372;52.050;4.810;2022-11-15T14:57:49;7.27;;;1.73;;
37527;SDS011;23372;52.050;4.810;2022-11-15T15:00:15;4.30;;;1.20;;
37527;SDS011;23372;52.050;4.810;2022-11-15T15:02:42;5.37;;;1.10;;
37527;SDS011;23372;52.050;4.810;2022-11-15T15:05:16;4.53;;;1.20;;
37527;SDS011;23372;52.050;4.810;2022-11-15T15:07:48;6.20;;;1.10;;
37527;SDS011;23372;52.050;4.810;2022-11-15T15:10:14;5.23;;;1.30;;
37527;SDS011;23372;52.050;4.810;2022-11-15T15:12:41;5.67;;;1.27;;
37527;SDS011;23372;52.050;4.810;2022-11-15T15:15:11;6.27;;;1.10;;
37527;SDS011;23372;52.050;4.810;2022-11-15T15:17:39;3.30;;;1.10;;
37527;SDS011;23372;52.050;4.810;2022-11-15T15:20:05;5.87;;;1.40;;
37527;SDS011;23372;52.050;4.810;2022-11-15T15:22:31;4.87;;;1.33;;
37527;SDS011;23372;52.050;4.810;2022-11-15T15:24:56;6.00;;;1.30;;
37527;SDS011;23372;52.050;4.810;2022-11-15T15:27:22;6.73;;;1.57;;
37527;SDS011;23372;52.050;4.810;2022-11-15T15:29:47;4.20;;;1.27;;
37527;SDS011;23372;52.050;4.810;2022-11-15T15:32:13;3.90;;;1.33;;
37527;SDS011;23372;52.050;4.810;2022-11-15T15:34:39;5.87;;;1.27;;
37527;SDS011;23372;52.050;4.810;2022-11-15T15:37:08;3.03;;;1.23;;
37527;SDS011;23372;52.050;4.810;2022-11-15T15:39:53;5.00;;;1.30;;
37527;SDS011;23372;52.050;4.810;2022-11-15T15:42:20;5.50;;;1.57;;
37527;SDS011;23372;52.050;4.810;2022-11-15T15:44:47;3.47;;;1.53;;
37527;SDS011;23372;52.050;4.810;2022-11-15T15:47:16;3.17;;;1.10;;
37527;SDS011;23372;52.050;4.810;2022-11-15T15:49:43;4.33;;;1.30;;
37527;SDS011;23372;52.050;4.810;2022-11-15T15:52:09;4.43;;;1.03;;
37527;SDS011;23372;52.050;4.810;2022-11-15T15:54:35;5.87;;;1.40;;
37527;SDS011;23372;52.050;4.810;2022-11-15T15:57:00;4.50;;;1.43;;
37527;SDS011;23372;52.050;4.810;2022-11-15T15:59:26;5.77;;;1.40;;
37527;SDS011;23372;52.050;4.810;2022-11-15T16:01:51;3.33;;;1.60;;
37527;SDS011;23372;52.050;4.810;2022-11-15T16:04:17;6.10;;;1.67;;
37527;SDS011;23372;52.050;4.810;2022-11-15T16:06:42;4.97;;;1.37;;
37527;SDS011;23372;52.050;4.810;2022-11-15T16:09:12;3.13;;;1.17;;
37527;SDS011;23372;52.050;4.810;2022-11-15T16:11:39;4.13;;;1.23;;
37527;SDS011;23372;52.050;4.810;2022-11-15T16:14:06;6.33;;;1.60;;
37527;SDS011;23372;52.050;4.810;2022-11-15T16:16:32;5.53;;;1.33;;
37527;SDS011;23372;52.050;4.810;2022-11-15T16:18:59;5.23;;;1.63;;